sensor_id;sensor_type;location;lat;lon;timestamp;temperature;humidity
32698;DHT22;19087;51.062;3.754;2022-07-18T00:01:01;20.20;86.50
32698;DHT22;19087;51.062;3.754;2022-07-18T00:03:27;20.40;85.90
32698;DHT22;19087;51.062;3.754;2022-07-18T00:05:53;20.50;85.40
32698;DHT22;19087;51.062;3.754;2022-07-18T00:08:18;20.50;85.20
32698;DHT22;19087;51.062;3.754;2022-07-18T00:10:44;20.40;85.50
32698;DHT22;19087;51.062;3.754;2022-07-18T00:13:10;20.10;86.50
32698;DHT22;19087;51.062;3.754;2022-07-18T00:15:36;19.90;87.20
32698;DHT22;19087;51.062;3.754;2022-07-18T00:18:02;19.70;87.70
32698;DHT22;19087;51.062;3.754;2022-07-18T00:20:28;19.60;87.80
32698;DHT22;19087;51.062;3.754;2022-07-18T00:22:55;19.60;87.80
32698;DHT22;19087;51.062;3.754;2022-07-18T00:25:21;19.60;88.10
32698;DHT22;19087;51.062;3.754;2022-07-18T00:27:47;19.60;88.50
32698;DHT22;19087;51.062;3.754;2022-07-18T00:30:12;19.50;89.60
32698;DHT22;19087;51.062;3.754;2022-07-18T00:32:38;19.40;90.00
32698;DHT22;19087;51.062;3.754;2022-07-18T00:35:05;19.50;90.10
32698;DHT22;19087;51.062;3.754;2022-07-18T00:37:30;19.50;90.00
32698;DHT22;19087;51.062;3.754;2022-07-18T00:39:58;19.50;89.60
32698;DHT22;19087;51.062;3.754;2022-07-18T00:42:24;19.50;89.60
32698;DHT22;19087;51.062;3.754;2022-07-18T00:44:54;19.50;89.60
32698;DHT22;19087;51.062;3.754;2022-07-18T00:47:21;19.70;88.90
32698;DHT22;19087;51.062;3.754;2022-07-18T00:49:47;19.70;88.60
32698;DHT22;19087;51.062;3.754;2022-07-18T00:52:13;19.60;89.40
32698;DHT22;19087;51.062;3.754;2022-07-18T00:54:45;19.50;90.00
32698;DHT22;19087;51.062;3.754;2022-07-18T00:57:11;19.30;90.30
32698;DHT22;19087;51.062;3.754;2022-07-18T00:59:37;19.30;90.40
32698;DHT22;19087;51.062;3.754;2022-07-18T01:02:22;19.20;90.50
32698;DHT22;19087;51.062;3.754;2022-07-18T01:04:48;19.30;90.40
32698;DHT22;19087;51.062;3.754;2022-07-18T01:07:15;19.30;90.30
32698;DHT22;19087;51.062;3.754;2022-07-18T01:09:41;19.30;90.30
32698;DHT22;19087;51.062;3.754;2022-07-18T01:12:08;19.40;90.30
32698;DHT22;19087;51.062;3.754;2022-07-18T01:14:35;19.40;90.20
32698;DHT22;19087;51.062;3.754;2022-07-18T01:17:02;19.30;90.30
32698;DHT22;19087;51.062;3.754;2022-07-18T01:19:31;19.20;90.60
32698;DHT22;19087;51.062;3.754;2022-07-18T01:21:56;19.10;90.80
32698;DHT22;19087;51.062;3.754;2022-07-18T01:24:22;19.00;91.00
32698;DHT22;19087;51.062;3.754;2022-07-18T01:26:48;19.00;91.00
32698;DHT22;19087;51.062;3.754;2022-07-18T01:29:13;19.10;90.70
32698;DHT22;19087;51.062;3.754;2022-07-18T01:31:39;19.00;90.80
32698;DHT22;19087;51.062;3.754;2022-07-18T01:34:06;18.90;91.00
32698;DHT22;19087;51.062;3.754;2022-07-18T01:36:31;19.10;90.90
32698;DHT22;19087;51.062;3.754;2022-07-18T01:38:57;19.10;90.50
32698;DHT22;19087;51.062;3.754;2022-07-18T01:41:23;19.20;90.50
32698;DHT22;19087;51.062;3.754;2022-07-18T01:43:48;19.30;90.40
32698;DHT22;19087;51.062;3.754;2022-07-18T01:46:14;19.10;90.60
32698;DHT22;19087;51.062;3.754;2022-07-18T01:48:40;19.00;90.70
32698;DHT22;19087;51.062;3.754;2022-07-18T01:51:07;18.90;90.90
32698;DHT22;19087;51.062;3.754;2022-07-18T01:53:40;19.00;90.70
32698;DHT22;19087;51.062;3.754;2022-07-18T01:56:07;19.10;90.70
32698;DHT22;19087;51.062;3.754;2022-07-18T01:58:33;18.90;91.00
32698;DHT22;19087;51.062;3.754;2022-07-18T02:00:59;18.70;91.30
32698;DHT22;19087;51.062;3.754;2022-07-18T02:03:24;18.60;91.50
32698;DHT22;19087;51.062;3.754;2022-07-18T02:05:50;18.50;91.70
32698;DHT22;19087;51.062;3.754;2022-07-18T02:08:15;18.50;91.70
32698;DHT22;19087;51.062;3.754;2022-07-18T02:10:41;18.50;91.70
32698;DHT22;19087;51.062;3.754;2022-07-18T02:13:07;18.60;91.60
32698;DHT22;19087;51.062;3.754;2022-07-18T02:15:32;18.60;91.50
32698;DHT22;19087;51.062;3.754;2022-07-18T02:17:58;18.50;91.70
32698;DHT22;19087;51.062;3.754;2022-07-18T02:20:24;18.40;91.80
32698;DHT22;19087;51.062;3.754;2022-07-18T02:22:50;18.50;91.70
32698;DHT22;19087;51.062;3.754;2022-07-18T02:25:16;18.60;91.50
32698;DHT22;19087;51.062;3.754;2022-07-18T02:27:42;18.60;91.50
32698;DHT22;19087;51.062;3.754;2022-07-18T02:30:09;18.60;91.60
32698;DHT22;19087;51.062;3.754;2022-07-18T02:32:35;18.50;91.80
32698;DHT22;19087;51.062;3.754;2022-07-18T02:35:05;18.30;92.20
32698;DHT22;19087;51.062;3.754;2022-07-18T02:37:33;18.20;92.40
32698;DHT22;19087;51.062;3.754;2022-07-18T02:39:58;18.40;92.10
32698;DHT22;19087;51.062;3.754;2022-07-18T02:42:24;18.20;92.30
32698;DHT22;19087;51.062;3.754;2022-07-18T02:44:51;18.10;92.60
32698;DHT22;19087;51.062;3.754;2022-07-18T02:47:17;18.00;92.80
32698;DHT22;19087;51.062;3.754;2022-07-18T02:49:42;18.00;92.90
32698;DHT22;19087;51.062;3.754;2022-07-18T02:52:08;18.10;92.90
32698;DHT22;19087;51.062;3.754;2022-07-18T02:54:35;18.20;92.80
32698;DHT22;19087;51.062;3.754;2022-07-18T02:57:01;18.10;92.70
32698;DHT22;19087;51.062;3.754;2022-07-18T02:59:28;18.10;92.80
32698;DHT22;19087;51.062;3.754;2022-07-18T03:01:55;18.20;92.70
32698;DHT22;19087;51.062;3.754;2022-07-18T03:04:21;18.20;92.60
32698;DHT22;19087;51.062;3.754;2022-07-18T03:06:48;18.30;92.60
32698;DHT22;19087;51.062;3.754;2022-07-18T03:09:16;18.20;92.70
32698;DHT22;19087;51.062;3.754;2022-07-18T03:11:42;18.10;93.00
32698;DHT22;19087;51.062;3.754;2022-07-18T03:14:08;18.10;93.10
32698;DHT22;19087;51.062;3.754;2022-07-18T03:16:36;18.10;93.00
32698;DHT22;19087;51.062;3.754;2022-07-18T03:19:02;18.20;92.90
32698;DHT22;19087;51.062;3.754;2022-07-18T03:21:28;18.20;93.00
32698;DHT22;19087;51.062;3.754;2022-07-18T03:23:55;18.10;93.10
32698;DHT22;19087;51.062;3.754;2022-07-18T03:26:21;18.10;93.20
32698;DHT22;19087;51.062;3.754;2022-07-18T03:28:48;17.90;93.50
32698;DHT22;19087;51.062;3.754;2022-07-18T03:31:14;17.70;93.90
32698;DHT22;19087;51.062;3.754;2022-07-18T03:33:40;17.60;94.20
32698;DHT22;19087;51.062;3.754;2022-07-18T03:36:05;17.70;94.20
32698;DHT22;19087;51.062;3.754;2022-07-18T03:38:31;17.90;93.70
32698;DHT22;19087;51.062;3.754;2022-07-18T03:40:57;18.00;93.30
32698;DHT22;19087;51.062;3.754;2022-07-18T03:43:23;18.00;93.20
32698;DHT22;19087;51.062;3.754;2022-07-18T03:45:48;17.90;93.20
32698;DHT22;19087;51.062;3.754;2022-07-18T03:48:14;18.00;93.20
32698;DHT22;19087;51.062;3.754;2022-07-18T03:50:41;17.80;93.50
32698;DHT22;19087;51.062;3.754;2022-07-18T03:53:07;17.70;93.60
32698;DHT22;19087;51.062;3.754;2022-07-18T03:55:32;17.60;93.90
32698;DHT22;19087;51.062;3.754;2022-07-18T03:57:59;17.60;94.40
32698;DHT22;19087;51.062;3.754;2022-07-18T04:00:25;17.70;93.60
32698;DHT22;19087;51.062;3.754;2022-07-18T04:02:50;17.70;93.40
32698;DHT22;19087;51.062;3.754;2022-07-18T04:05:16;17.60;93.40
32698;DHT22;19087;51.062;3.754;2022-07-18T04:07:44;17.60;93.30
32698;DHT22;19087;51.062;3.754;2022-07-18T04:10:10;17.80;93.10
32698;DHT22;19087;51.062;3.754;2022-07-18T04:12:51;17.90;93.00
32698;DHT22;19087;51.062;3.754;2022-07-18T04:15:18;17.90;92.60
32698;DHT22;19087;51.062;3.754;2022-07-18T04:17:44;17.90;92.70
32698;DHT22;19087;51.062;3.754;2022-07-18T04:20:10;17.80;92.90
32698;DHT22;19087;51.062;3.754;2022-07-18T04:22:48;17.70;92.80
32698;DHT22;19087;51.062;3.754;2022-07-18T04:25:17;17.80;93.00
32698;DHT22;19087;51.062;3.754;2022-07-18T04:27:43;18.00;92.50
32698;DHT22;19087;51.062;3.754;2022-07-18T04:30:10;18.20;92.40
32698;DHT22;19087;51.062;3.754;2022-07-18T04:32:42;18.40;91.70
32698;DHT22;19087;51.062;3.754;2022-07-18T04:35:08;18.50;91.70
32698;DHT22;19087;51.062;3.754;2022-07-18T04:37:34;18.40;91.60
32698;DHT22;19087;51.062;3.754;2022-07-18T04:40:01;18.30;91.70
32698;DHT22;19087;51.062;3.754;2022-07-18T04:42:27;18.50;91.70
32698;DHT22;19087;51.062;3.754;2022-07-18T04:44:54;18.60;91.40
32698;DHT22;19087;51.062;3.754;2022-07-18T04:47:19;18.80;91.20
32698;DHT22;19087;51.062;3.754;2022-07-18T04:49:46;18.90;91.10
32698;DHT22;19087;51.062;3.754;2022-07-18T04:52:12;19.00;91.00
32698;DHT22;19087;51.062;3.754;2022-07-18T04:54:37;18.90;91.10
32698;DHT22;19087;51.062;3.754;2022-07-18T04:57:04;19.00;91.10
32698;DHT22;19087;51.062;3.754;2022-07-18T04:59:30;19.10;91.10
32698;DHT22;19087;51.062;3.754;2022-07-18T05:01:55;19.10;91.10
32698;DHT22;19087;51.062;3.754;2022-07-18T05:04:21;19.20;91.10
32698;DHT22;19087;51.062;3.754;2022-07-18T05:06:47;19.10;91.10
32698;DHT22;19087;51.062;3.754;2022-07-18T05:09:13;19.00;91.20
32698;DHT22;19087;51.062;3.754;2022-07-18T05:11:38;19.00;91.30
32698;DHT22;19087;51.062;3.754;2022-07-18T05:14:05;19.10;91.10
32698;DHT22;19087;51.062;3.754;2022-07-18T05:16:30;19.10;91.00
32698;DHT22;19087;51.062;3.754;2022-07-18T05:18:56;19.20;91.00
32698;DHT22;19087;51.062;3.754;2022-07-18T05:21:22;19.20;91.10
32698;DHT22;19087;51.062;3.754;2022-07-18T05:23:56;19.30;91.10
32698;DHT22;19087;51.062;3.754;2022-07-18T05:26:21;19.40;91.10
32698;DHT22;19087;51.062;3.754;2022-07-18T05:28:47;19.50;90.90
32698;DHT22;19087;51.062;3.754;2022-07-18T05:31:13;19.60;90.80
32698;DHT22;19087;51.062;3.754;2022-07-18T05:33:39;19.70;90.80
32698;DHT22;19087;51.062;3.754;2022-07-18T05:36:05;19.90;90.60
32698;DHT22;19087;51.062;3.754;2022-07-18T05:38:31;20.00;90.50
32698;DHT22;19087;51.062;3.754;2022-07-18T05:40:57;20.00;90.30
32698;DHT22;19087;51.062;3.754;2022-07-18T05:43:22;20.10;90.10
32698;DHT22;19087;51.062;3.754;2022-07-18T05:45:48;20.20;89.80
32698;DHT22;19087;51.062;3.754;2022-07-18T05:48:14;20.50;89.20
32698;DHT22;19087;51.062;3.754;2022-07-18T05:50:40;20.70;88.50
32698;DHT22;19087;51.062;3.754;2022-07-18T05:53:06;20.70;87.90
32698;DHT22;19087;51.062;3.754;2022-07-18T05:55:31;20.60;87.50
32698;DHT22;19087;51.062;3.754;2022-07-18T05:57:57;20.70;87.50
32698;DHT22;19087;51.062;3.754;2022-07-18T06:00:23;20.80;87.30
32698;DHT22;19087;51.062;3.754;2022-07-18T06:02:50;20.80;86.70
32698;DHT22;19087;51.062;3.754;2022-07-18T06:05:16;20.90;86.90
32698;DHT22;19087;51.062;3.754;2022-07-18T06:07:42;21.20;86.60
32698;DHT22;19087;51.062;3.754;2022-07-18T06:10:08;21.40;85.60
32698;DHT22;19087;51.062;3.754;2022-07-18T06:12:34;21.90;84.70
32698;DHT22;19087;51.062;3.754;2022-07-18T06:15:00;22.50;83.00
32698;DHT22;19087;51.062;3.754;2022-07-18T06:17:26;23.90;79.60
32698;DHT22;19087;51.062;3.754;2022-07-18T06:19:55;25.10;76.10
32698;DHT22;19087;51.062;3.754;2022-07-18T06:22:22;25.90;74.10
32698;DHT22;19087;51.062;3.754;2022-07-18T06:24:48;26.50;72.40
32698;DHT22;19087;51.062;3.754;2022-07-18T06:27:14;26.40;71.00
32698;DHT22;19087;51.062;3.754;2022-07-18T06:29:39;26.30;71.20
32698;DHT22;19087;51.062;3.754;2022-07-18T06:32:06;26.00;72.00
32698;DHT22;19087;51.062;3.754;2022-07-18T06:34:32;25.70;73.50
32698;DHT22;19087;51.062;3.754;2022-07-18T06:36:57;25.50;73.40
32698;DHT22;19087;51.062;3.754;2022-07-18T06:39:23;25.30;73.90
32698;DHT22;19087;51.062;3.754;2022-07-18T06:41:49;25.80;73.60
32698;DHT22;19087;51.062;3.754;2022-07-18T06:44:15;26.30;72.60
32698;DHT22;19087;51.062;3.754;2022-07-18T06:46:43;27.00;72.00
32698;DHT22;19087;51.062;3.754;2022-07-18T06:49:09;27.80;70.20
32698;DHT22;19087;51.062;3.754;2022-07-18T06:51:35;27.90;69.30
32698;DHT22;19087;51.062;3.754;2022-07-18T06:54:01;28.10;69.30
32698;DHT22;19087;51.062;3.754;2022-07-18T06:56:27;29.00;67.70
32698;DHT22;19087;51.062;3.754;2022-07-18T06:58:53;30.10;65.90
32698;DHT22;19087;51.062;3.754;2022-07-18T07:01:21;31.10;64.00
32698;DHT22;19087;51.062;3.754;2022-07-18T07:03:47;32.00;62.30
32698;DHT22;19087;51.062;3.754;2022-07-18T07:06:13;33.20;60.00
32698;DHT22;19087;51.062;3.754;2022-07-18T07:08:41;34.20;57.90
32698;DHT22;19087;51.062;3.754;2022-07-18T07:11:07;35.00;56.30
32698;DHT22;19087;51.062;3.754;2022-07-18T07:13:33;35.70;55.10
32698;DHT22;19087;51.062;3.754;2022-07-18T07:15:59;36.20;54.00
32698;DHT22;19087;51.062;3.754;2022-07-18T07:18:24;36.50;53.30
32698;DHT22;19087;51.062;3.754;2022-07-18T07:20:50;37.40;52.50
32698;DHT22;19087;51.062;3.754;2022-07-18T07:23:16;37.60;51.50
32698;DHT22;19087;51.062;3.754;2022-07-18T07:25:42;37.90;50.90
32698;DHT22;19087;51.062;3.754;2022-07-18T07:28:08;38.10;50.80
32698;DHT22;19087;51.062;3.754;2022-07-18T07:30:34;37.90;50.70
32698;DHT22;19087;51.062;3.754;2022-07-18T07:33:01;37.60;50.90
32698;DHT22;19087;51.062;3.754;2022-07-18T07:35:27;38.10;50.90
32698;DHT22;19087;51.062;3.754;2022-07-18T07:37:54;38.20;49.40
32698;DHT22;19087;51.062;3.754;2022-07-18T07:40:24;37.70;50.10
32698;DHT22;19087;51.062;3.754;2022-07-18T07:42:51;37.60;49.60
32698;DHT22;19087;51.062;3.754;2022-07-18T07:45:19;38.40;48.60
32698;DHT22;19087;51.062;3.754;2022-07-18T07:47:44;38.60;47.50
32698;DHT22;19087;51.062;3.754;2022-07-18T07:50:16;38.50;46.60
32698;DHT22;19087;51.062;3.754;2022-07-18T07:52:43;38.50;46.70
32698;DHT22;19087;51.062;3.754;2022-07-18T07:55:09;38.50;46.70
32698;DHT22;19087;51.062;3.754;2022-07-18T07:57:34;38.10;46.80
32698;DHT22;19087;51.062;3.754;2022-07-18T08:00:06;38.40;47.20
32698;DHT22;19087;51.062;3.754;2022-07-18T08:02:33;39.10;45.80
32698;DHT22;19087;51.062;3.754;2022-07-18T08:04:59;38.50;45.30
32698;DHT22;19087;51.062;3.754;2022-07-18T08:07:26;38.00;45.70
32698;DHT22;19087;51.062;3.754;2022-07-18T08:09:52;38.70;45.40
32698;DHT22;19087;51.062;3.754;2022-07-18T08:12:18;39.30;44.80
32698;DHT22;19087;51.062;3.754;2022-07-18T08:14:44;40.20;44.30
32698;DHT22;19087;51.062;3.754;2022-07-18T08:17:09;41.10;43.30
32698;DHT22;19087;51.062;3.754;2022-07-18T08:19:35;41.40;43.20
32698;DHT22;19087;51.062;3.754;2022-07-18T08:22:02;40.90;42.60
32698;DHT22;19087;51.062;3.754;2022-07-18T08:24:29;41.30;42.50
32698;DHT22;19087;51.062;3.754;2022-07-18T08:27:00;41.70;42.20
32698;DHT22;19087;51.062;3.754;2022-07-18T08:29:26;41.80;41.90
32698;DHT22;19087;51.062;3.754;2022-07-18T08:31:52;42.50;41.20
32698;DHT22;19087;51.062;3.754;2022-07-18T08:34:17;43.20;40.90
32698;DHT22;19087;51.062;3.754;2022-07-18T08:36:43;43.40;40.50
32698;DHT22;19087;51.062;3.754;2022-07-18T08:39:09;43.20;40.60
32698;DHT22;19087;51.062;3.754;2022-07-18T08:41:36;43.10;40.30
32698;DHT22;19087;51.062;3.754;2022-07-18T08:44:02;42.40;40.80
32698;DHT22;19087;51.062;3.754;2022-07-18T08:46:32;42.00;40.90
32698;DHT22;19087;51.062;3.754;2022-07-18T08:48:59;41.30;41.70
32698;DHT22;19087;51.062;3.754;2022-07-18T08:51:25;41.00;41.60
32698;DHT22;19087;51.062;3.754;2022-07-18T08:53:56;40.00;42.30
32698;DHT22;19087;51.062;3.754;2022-07-18T08:56:22;40.00;43.20
32698;DHT22;19087;51.062;3.754;2022-07-18T08:58:48;41.20;42.50
32698;DHT22;19087;51.062;3.754;2022-07-18T09:01:14;42.20;41.90
32698;DHT22;19087;51.062;3.754;2022-07-18T09:03:39;41.90;41.20
32698;DHT22;19087;51.062;3.754;2022-07-18T09:06:11;41.20;41.60
32698;DHT22;19087;51.062;3.754;2022-07-18T09:09:00;39.60;42.80
32698;DHT22;19087;51.062;3.754;2022-07-18T09:11:26;38.60;44.00
32698;DHT22;19087;51.062;3.754;2022-07-18T09:13:52;37.50;43.90
32698;DHT22;19087;51.062;3.754;2022-07-18T09:16:17;36.20;45.60
32698;DHT22;19087;51.062;3.754;2022-07-18T09:18:45;35.30;46.70
32698;DHT22;19087;51.062;3.754;2022-07-18T09:21:16;35.00;46.60
32698;DHT22;19087;51.062;3.754;2022-07-18T09:23:46;33.90;48.00
32698;DHT22;19087;51.062;3.754;2022-07-18T09:26:41;33.30;49.00
32698;DHT22;19087;51.062;3.754;2022-07-18T09:29:08;32.80;49.20
32698;DHT22;19087;51.062;3.754;2022-07-18T09:31:34;32.40;50.50
32698;DHT22;19087;51.062;3.754;2022-07-18T09:34:03;32.10;51.00
32698;DHT22;19087;51.062;3.754;2022-07-18T09:36:29;31.80;51.30
32698;DHT22;19087;51.062;3.754;2022-07-18T09:38:59;31.50;51.40
32698;DHT22;19087;51.062;3.754;2022-07-18T09:41:26;31.60;51.80
32698;DHT22;19087;51.062;3.754;2022-07-18T09:43:52;31.70;51.90
32698;DHT22;19087;51.062;3.754;2022-07-18T09:46:18;32.00;51.80
32698;DHT22;19087;51.062;3.754;2022-07-18T09:48:45;32.20;51.20
32698;DHT22;19087;51.062;3.754;2022-07-18T09:51:11;32.20;50.90
32698;DHT22;19087;51.062;3.754;2022-07-18T09:53:42;32.20;50.80
32698;DHT22;19087;51.062;3.754;2022-07-18T09:56:13;32.20;50.70
32698;DHT22;19087;51.062;3.754;2022-07-18T09:58:50;32.30;50.30
32698;DHT22;19087;51.062;3.754;2022-07-18T10:01:16;32.50;51.10
32698;DHT22;19087;51.062;3.754;2022-07-18T10:03:42;32.50;50.70
32698;DHT22;19087;51.062;3.754;2022-07-18T10:06:08;32.30;51.10
32698;DHT22;19087;51.062;3.754;2022-07-18T10:08:35;32.50;50.60
32698;DHT22;19087;51.062;3.754;2022-07-18T10:11:03;32.50;49.60
32698;DHT22;19087;51.062;3.754;2022-07-18T10:13:30;32.60;49.00
32698;DHT22;19087;51.062;3.754;2022-07-18T10:15:57;32.80;48.70
32698;DHT22;19087;51.062;3.754;2022-07-18T10:18:24;32.90;49.00
32698;DHT22;19087;51.062;3.754;2022-07-18T10:20:59;32.80;48.60
32698;DHT22;19087;51.062;3.754;2022-07-18T10:26:22;32.90;49.50
32698;DHT22;19087;51.062;3.754;2022-07-18T10:31:37;32.70;49.50
32698;DHT22;19087;51.062;3.754;2022-07-18T10:36:36;32.50;49.30
32698;DHT22;19087;51.062;3.754;2022-07-18T10:39:14;32.20;49.10
32698;DHT22;19087;51.062;3.754;2022-07-18T10:57:33;33.30;47.50
32698;DHT22;19087;51.062;3.754;2022-07-18T11:00:10;33.50;47.10
32698;DHT22;19087;51.062;3.754;2022-07-18T11:02:45;33.50;46.70
32698;DHT22;19087;51.062;3.754;2022-07-18T11:16:17;32.90;46.90
32698;DHT22;19087;51.062;3.754;2022-07-18T11:24:04;33.10;47.90
32698;DHT22;19087;51.062;3.754;2022-07-18T11:26:33;32.80;48.00
32698;DHT22;19087;51.062;3.754;2022-07-18T11:29:07;32.60;48.50
32698;DHT22;19087;51.062;3.754;2022-07-18T11:34:15;32.60;48.50
32698;DHT22;19087;51.062;3.754;2022-07-18T11:36:43;32.80;48.90
32698;DHT22;19087;51.062;3.754;2022-07-18T11:39:09;33.10;48.40
32698;DHT22;19087;51.062;3.754;2022-07-18T11:41:39;33.30;47.00
32698;DHT22;19087;51.062;3.754;2022-07-18T11:44:19;33.10;47.50
32698;DHT22;19087;51.062;3.754;2022-07-18T11:47:01;33.40;46.80
32698;DHT22;19087;51.062;3.754;2022-07-18T11:49:27;33.60;47.20
32698;DHT22;19087;51.062;3.754;2022-07-18T11:51:53;33.60;47.80
32698;DHT22;19087;51.062;3.754;2022-07-18T11:54:24;33.80;46.60
32698;DHT22;19087;51.062;3.754;2022-07-18T11:56:53;33.90;45.90
32698;DHT22;19087;51.062;3.754;2022-07-18T11:59:19;33.70;46.70
32698;DHT22;19087;51.062;3.754;2022-07-18T12:01:45;33.30;47.10
32698;DHT22;19087;51.062;3.754;2022-07-18T12:04:24;33.50;47.20
32698;DHT22;19087;51.062;3.754;2022-07-18T12:07:24;33.80;47.60
32698;DHT22;19087;51.062;3.754;2022-07-18T12:09:51;33.60;46.60
32698;DHT22;19087;51.062;3.754;2022-07-18T12:12:19;33.30;46.70
32698;DHT22;19087;51.062;3.754;2022-07-18T12:14:59;33.60;46.30
32698;DHT22;19087;51.062;3.754;2022-07-18T12:17:26;34.00;45.10
32698;DHT22;19087;51.062;3.754;2022-07-18T12:20:41;34.20;44.80
32698;DHT22;19087;51.062;3.754;2022-07-18T12:23:10;34.20;45.70
32698;DHT22;19087;51.062;3.754;2022-07-18T12:25:41;34.40;45.20
32698;DHT22;19087;51.062;3.754;2022-07-18T12:28:16;34.40;45.10
32698;DHT22;19087;51.062;3.754;2022-07-18T12:30:42;34.10;45.00
32698;DHT22;19087;51.062;3.754;2022-07-18T12:33:08;34.30;44.70
32698;DHT22;19087;51.062;3.754;2022-07-18T12:35:38;34.20;44.20
32698;DHT22;19087;51.062;3.754;2022-07-18T12:38:09;34.30;44.00
32698;DHT22;19087;51.062;3.754;2022-07-18T12:43:26;34.20;44.10
32698;DHT22;19087;51.062;3.754;2022-07-18T12:45:53;34.50;44.10
32698;DHT22;19087;51.062;3.754;2022-07-18T12:48:21;34.70;43.80
32698;DHT22;19087;51.062;3.754;2022-07-18T12:50:56;34.70;43.60
32698;DHT22;19087;51.062;3.754;2022-07-18T12:53:30;34.80;44.00
32698;DHT22;19087;51.062;3.754;2022-07-18T12:55:56;34.70;44.10
32698;DHT22;19087;51.062;3.754;2022-07-18T12:58:22;34.60;43.10
32698;DHT22;19087;51.062;3.754;2022-07-18T13:00:49;34.70;43.20
32698;DHT22;19087;51.062;3.754;2022-07-18T13:03:23;35.00;42.60
32698;DHT22;19087;51.062;3.754;2022-07-18T13:05:49;34.90;42.30
32698;DHT22;19087;51.062;3.754;2022-07-18T13:08:15;34.80;42.80
32698;DHT22;19087;51.062;3.754;2022-07-18T13:10:41;34.60;42.40
32698;DHT22;19087;51.062;3.754;2022-07-18T13:13:09;34.80;43.20
32698;DHT22;19087;51.062;3.754;2022-07-18T13:15:35;34.90;42.80
32698;DHT22;19087;51.062;3.754;2022-07-18T13:18:01;35.10;43.10
32698;DHT22;19087;51.062;3.754;2022-07-18T13:20:27;35.40;42.50
32698;DHT22;19087;51.062;3.754;2022-07-18T13:22:53;35.40;42.90
32698;DHT22;19087;51.062;3.754;2022-07-18T13:25:20;35.10;43.50
32698;DHT22;19087;51.062;3.754;2022-07-18T13:27:47;35.20;42.60
32698;DHT22;19087;51.062;3.754;2022-07-18T13:30:13;34.90;42.60
32698;DHT22;19087;51.062;3.754;2022-07-18T13:32:38;35.00;42.60
32698;DHT22;19087;51.062;3.754;2022-07-18T13:35:05;35.10;43.00
32698;DHT22;19087;51.062;3.754;2022-07-18T13:37:30;34.90;42.90
32698;DHT22;19087;51.062;3.754;2022-07-18T13:39:56;35.20;42.70
32698;DHT22;19087;51.062;3.754;2022-07-18T13:42:27;35.30;42.90
32698;DHT22;19087;51.062;3.754;2022-07-18T13:44:53;35.50;42.80
32698;DHT22;19087;51.062;3.754;2022-07-18T13:47:19;35.30;42.70
32698;DHT22;19087;51.062;3.754;2022-07-18T13:49:44;35.20;42.70
32698;DHT22;19087;51.062;3.754;2022-07-18T13:52:12;35.20;42.50
32698;DHT22;19087;51.062;3.754;2022-07-18T13:54:38;35.10;42.10
32698;DHT22;19087;51.062;3.754;2022-07-18T13:57:04;35.10;42.00
32698;DHT22;19087;51.062;3.754;2022-07-18T13:59:31;35.40;42.00
32698;DHT22;19087;51.062;3.754;2022-07-18T14:01:57;35.40;42.10
32698;DHT22;19087;51.062;3.754;2022-07-18T14:04:23;35.30;43.20
32698;DHT22;19087;51.062;3.754;2022-07-18T14:06:49;35.40;42.70
32698;DHT22;19087;51.062;3.754;2022-07-18T14:09:16;35.30;42.60
32698;DHT22;19087;51.062;3.754;2022-07-18T14:11:41;35.40;42.50
32698;DHT22;19087;51.062;3.754;2022-07-18T14:14:07;35.40;41.70
32698;DHT22;19087;51.062;3.754;2022-07-18T14:16:33;35.20;41.80
32698;DHT22;19087;51.062;3.754;2022-07-18T14:18:59;35.00;42.20
32698;DHT22;19087;51.062;3.754;2022-07-18T14:21:25;34.80;42.20
32698;DHT22;19087;51.062;3.754;2022-07-18T14:23:51;34.90;42.00
32698;DHT22;19087;51.062;3.754;2022-07-18T14:26:17;35.10;41.50
32698;DHT22;19087;51.062;3.754;2022-07-18T14:28:42;35.10;41.80
32698;DHT22;19087;51.062;3.754;2022-07-18T14:31:08;35.50;41.70
32698;DHT22;19087;51.062;3.754;2022-07-18T14:33:34;35.30;41.30
32698;DHT22;19087;51.062;3.754;2022-07-18T14:36:00;35.00;41.50
32698;DHT22;19087;51.062;3.754;2022-07-18T14:38:25;34.80;42.00
32698;DHT22;19087;51.062;3.754;2022-07-18T14:40:51;35.00;42.70
32698;DHT22;19087;51.062;3.754;2022-07-18T14:43:17;34.90;42.00
32698;DHT22;19087;51.062;3.754;2022-07-18T14:45:42;35.10;41.90
32698;DHT22;19087;51.062;3.754;2022-07-18T14:48:08;35.00;41.70
32698;DHT22;19087;51.062;3.754;2022-07-18T14:50:34;35.10;41.90
32698;DHT22;19087;51.062;3.754;2022-07-18T14:53:00;35.10;41.30
32698;DHT22;19087;51.062;3.754;2022-07-18T14:55:28;35.00;41.70
32698;DHT22;19087;51.062;3.754;2022-07-18T14:57:54;35.00;41.20
32698;DHT22;19087;51.062;3.754;2022-07-18T15:00:20;35.10;40.80
32698;DHT22;19087;51.062;3.754;2022-07-18T15:02:46;35.10;40.80
32698;DHT22;19087;51.062;3.754;2022-07-18T15:05:12;35.20;40.60
32698;DHT22;19087;51.062;3.754;2022-07-18T15:07:38;35.40;40.80
32698;DHT22;19087;51.062;3.754;2022-07-18T15:10:04;35.30;40.20
32698;DHT22;19087;51.062;3.754;2022-07-18T15:12:30;35.40;40.60
32698;DHT22;19087;51.062;3.754;2022-07-18T15:14:58;35.50;40.60
32698;DHT22;19087;51.062;3.754;2022-07-18T15:17:24;35.60;40.80
32698;DHT22;19087;51.062;3.754;2022-07-18T15:19:50;35.70;40.80
32698;DHT22;19087;51.062;3.754;2022-07-18T15:22:16;35.60;40.40
32698;DHT22;19087;51.062;3.754;2022-07-18T15:24:43;35.70;40.60
32698;DHT22;19087;51.062;3.754;2022-07-18T15:27:09;35.70;41.20
32698;DHT22;19087;51.062;3.754;2022-07-18T15:29:42;35.60;40.30
32698;DHT22;19087;51.062;3.754;2022-07-18T15:32:09;35.40;40.50
32698;DHT22;19087;51.062;3.754;2022-07-18T15:34:38;35.30;40.60
32698;DHT22;19087;51.062;3.754;2022-07-18T15:37:05;35.40;41.00
32698;DHT22;19087;51.062;3.754;2022-07-18T15:39:32;35.60;40.90
32698;DHT22;19087;51.062;3.754;2022-07-18T15:42:01;35.50;41.20
32698;DHT22;19087;51.062;3.754;2022-07-18T15:44:28;35.40;41.00
32698;DHT22;19087;51.062;3.754;2022-07-18T15:46:53;35.30;40.80
32698;DHT22;19087;51.062;3.754;2022-07-18T15:49:20;35.40;40.70
32698;DHT22;19087;51.062;3.754;2022-07-18T15:51:45;35.50;40.60
32698;DHT22;19087;51.062;3.754;2022-07-18T15:54:15;35.50;40.40
32698;DHT22;19087;51.062;3.754;2022-07-18T15:56:41;35.40;39.90
32698;DHT22;19087;51.062;3.754;2022-07-18T15:59:07;35.40;40.00
32698;DHT22;19087;51.062;3.754;2022-07-18T16:01:32;35.60;39.70
32698;DHT22;19087;51.062;3.754;2022-07-18T16:03:58;35.60;39.90
32698;DHT22;19087;51.062;3.754;2022-07-18T16:06:24;35.60;41.00
32698;DHT22;19087;51.062;3.754;2022-07-18T16:08:49;35.50;40.40
32698;DHT22;19087;51.062;3.754;2022-07-18T16:11:17;35.40;41.00
32698;DHT22;19087;51.062;3.754;2022-07-18T16:13:43;35.20;41.00
32698;DHT22;19087;51.062;3.754;2022-07-18T16:16:09;35.30;41.10